Time;durP1;ratioP1;P1;durP2;ratioP2;P2;SDS_P1;SDS_P2;PMS_P1;PMS_P2;Temp;Humidity;BMP_temperature;BMP_pressure;BME280_temperature;BME280_humidity;BME280_pressure;Samples;Min_cycle;Max_cycle;Signal;HPM_P1;HPM_P2
2021/06/04 00:00:20;;;;;;;5.22;5.00;;;;;;;19.32;78.79;101612.91;4395786;32;20117;-67
2021/06/04 00:02:45;;;;;;;5.20;5.00;;;;;;;19.34;78.30;101596.78;4389198;32;20083;-67
2021/06/04 00:05:11;;;;;;;5.43;5.12;;;;;;;19.37;78.10;101599.22;4395176;32;20183;-67
2021/06/04 00:07:37;;;;;;;5.80;5.40;;;;;;;19.31;78.10;101591.72;4383924;32;20068;-67
2021/06/04 00:10:06;;;;;;;5.50;5.20;;;;;;;19.30;78.75;101608.62;4397510;32;20600;-67
2021/06/04 00:12:31;;;;;;;5.55;5.25;;;;;;;18.95;78.35;101561.53;4403577;32;20089;-67
2021/06/04 00:14:57;;;;;;;5.07;4.87;;;;;;;19.23;78.81;101607.41;4396155;32;20076;-67
2021/06/04 00:17:25;;;;;;;6.50;6.00;;;;;;;19.21;78.09;101602.19;4383010;32;20064;-67
2021/06/04 00:19:51;;;;;;;4.93;4.72;;;;;;;19.06;79.73;101585.56;4384961;32;20099;-66
2021/06/04 00:22:21;;;;;;;5.20;4.95;;;;;;;19.16;79.31;101593.69;4396632;32;20184;-67
2021/06/04 00:24:47;;;;;;;5.10;4.90;;;;;;;19.16;78.55;101592.84;4390446;32;20061;-67
2021/06/04 00:27:13;;;;;;;5.05;4.85;;;;;;;19.17;78.57;101598.06;4383731;32;20095;-67
2021/06/04 00:29:39;;;;;;;5.70;5.30;;;;;;;19.16;78.63;101596.34;4390945;32;20161;-67
2021/06/04 00:32:04;;;;;;;4.87;4.68;;;;;;;19.18;79.04;101589.09;4410160;32;20069;-67
2021/06/04 00:34:30;;;;;;;5.53;5.18;;;;;;;19.19;79.53;101593.47;4395254;32;20510;-67
2021/06/04 00:36:55;;;;;;;5.37;5.18;;;;;;;19.20;78.71;101587.16;4396564;32;20064;-67
2021/06/04 00:39:23;;;;;;;5.60;5.30;;;;;;;19.17;78.89;101587.41;4392458;32;20079;-66
2021/06/04 00:41:54;;;;;;;5.40;5.10;;;;;;;19.12;79.67;101578.91;4397274;32;20073;-67
2021/06/04 00:44:20;;;;;;;4.97;4.78;;;;;;;19.11;79.36;101586.03;4419011;32;21016;-66
2021/06/04 00:46:46;;;;;;;5.25;5.05;;;;;;;19.08;80.06;101588.94;4400449;32;20111;-67
2021/06/04 00:49:11;;;;;;;5.40;5.10;;;;;;;19.09;78.96;101589.78;4380029;32;20642;-67
2021/06/04 00:51:58;;;;;;;5.53;5.22;;;;;;;19.05;79.90;101583.84;4384578;32;20077;-67
2021/06/04 00:54:23;;;;;;;5.45;5.15;;;;;;;18.96;79.90;101587.16;4410049;32;20655;-67
2021/06/04 00:56:49;;;;;;;5.03;4.82;;;;;;;18.94;79.62;101599.72;4401856;32;20191;-66
2021/06/04 00:59:14;;;;;;;5.57;5.28;;;;;;;18.84;81.37;101596.06;4423056;32;20157;-67
2021/06/04 01:01:40;;;;;;;5.40;5.10;;;;;;;18.77;81.00;101576.16;4401655;32;20068;-67
2021/06/04 01:04:08;;;;;;;5.75;5.45;;;;;;;18.84;81.57;101588.94;4418396;32;20347;-67
2021/06/04 01:06:49;;;;;;;5.15;4.93;;;;;;;18.84;81.55;101590.72;4400333;32;20065;-67
2021/06/04 01:09:30;;;;;;;5.15;4.95;;;;;;;18.85;81.22;101587.13;4423923;32;20079;-67
2021/06/04 01:12:24;;;;;;;5.15;4.95;;;;;;;18.81;80.55;101588.31;4411276;32;20054;-67
2021/06/04 01:15:33;;;;;;;5.25;5.00;;;;;;;18.78;80.64;101592.00;4438657;32;20141;-67
2021/06/04 01:18:07;;;;;;;5.00;4.80;;;;;;;17.68;81.64;101407.66;4405364;32;19972;-67
2021/06/04 01:20:42;;;;;;;5.25;4.95;;;;;;;18.77;81.48;101592.13;4411704;32;20566;-67
2021/06/04 01:23:19;;;;;;;5.82;5.43;;;;;;;18.76;81.12;101596.56;4399086;32;20151;-67
2021/06/04 01:25:51;;;;;;;5.50;5.20;;;;;;;18.78;81.97;101602.63;4433515;32;20128;-67
2021/06/04 01:28:31;;;;;;;5.45;5.25;;;;;;;18.82;80.77;101596.19;4416795;32;20179;-67
2021/06/04 01:31:07;;;;;;;5.12;4.90;;;;;;;18.83;81.01;101605.84;4397451;32;20156;-67
2021/06/04 01:33:50;;;;;;;4.93;4.72;;;;;;;18.84;81.19;101596.06;4434500;32;20645;-67
2021/06/04 01:36:17;;;;;;;5.70;5.40;;;;;;;18.85;81.34;101597.75;4395958;32;20074;-67
2021/06/04 01:38:43;;;;;;;5.30;5.10;;;;;;;18.85;81.48;101598.59;4424283;32;20084;-67
2021/06/04 01:41:12;;;;;;;5.07;4.87;;;;;;;18.86;81.07;101594.12;4400529;32;20084;-67
2021/06/04 01:43:47;;;;;;;4.87;4.68;;;;;;;18.85;81.12;101601.25;4400241;32;20206;-67
2021/06/04 01:46:22;;;;;;;5.03;4.82;;;;;;;18.84;81.29;101598.72;4413690;32;20468;-67
2021/06/04 01:48:49;;;;;;;7.47;5.32;;;;;;;18.81;82.24;101583.00;4404511;32;20542;-67
2021/06/04 01:51:32;;;;;;;5.43;5.12;;;;;;;18.90;81.47;101596.47;4410235;32;20172;-67
2021/06/04 01:54:01;;;;;;;5.70;5.30;;;;;;;18.87;81.72;101594.03;4409850;32;20606;-67
2021/06/04 01:56:31;;;;;;;5.85;5.50;;;;;;;18.79;81.56;101593.75;4400273;32;20160;-67
2021/06/04 01:59:05;;;;;;;5.30;5.00;;;;;;;18.75;81.78;101597.53;4401590;32;20072;-67
2021/06/04 02:01:37;;;;;;;5.40;5.20;;;;;;;18.58;82.76;101612.03;4398111;32;20624;-67
2021/06/04 02:04:11;;;;;;;5.68;5.37;;;;;;;18.57;82.46;101612.19;4402712;32;20178;-67
2021/06/04 02:06:36;;;;;;;6.05;5.75;;;;;;;18.55;82.82;101593.66;4402083;32;20130;-67
2021/06/04 02:09:05;;;;;;;5.68;5.35;;;;;;;18.49;83.01;101596.75;4400991;32;20571;-67
2021/06/04 02:11:31;;;;;;;5.00;4.80;;;;;;;18.54;83.35;101602.59;4399644;32;20124;-67
2021/06/04 02:13:56;;;;;;;5.28;4.97;;;;;;;18.50;82.06;101603.75;4404178;32;20068;-67
2021/06/04 02:17:02;;;;;;;6.95;6.65;;;;;;;18.46;82.24;101604.94;4400948;32;20226;-67
2021/06/04 02:19:50;;;;;;;5.07;4.87;;;;;;;18.45;82.54;101605.91;4411854;32;20138;-67
2021/06/04 02:22:25;;;;;;;5.15;4.95;;;;;;;18.41;82.39;101610.59;4418588;32;20943;-67
2021/06/04 02:24:59;;;;;;;5.12;4.82;;;;;;;18.40;82.94;101605.38;4410844;32;20265;-67
2021/06/04 02:27:33;;;;;;;5.95;5.65;;;;;;;18.33;83.30;101603.16;4417313;32;20075;-67
2021/06/04 02:30:14;;;;;;;5.35;5.05;;;;;;;18.27;83.42;101606.25;4409599;32;20084;-67
2021/06/04 02:32:42;;;;;;;5.50;5.22;;;;;;;18.25;83.10;101610.81;4418797;32;20159;-67
2021/06/04 02:35:13;;;;;;;5.53;5.22;;;;;;;18.22;83.69;101608.41;4400396;32;20122;-67
2021/06/04 02:37:41;;;;;;;5.30;5.00;;;;;;;18.20;83.84;101610.31;4407838;32;20315;-67
2021/06/04 02:40:11;;;;;;;4.95;4.75;;;;;;;18.19;82.49;101613.06;4404544;32;20830;-66
2021/06/04 02:42:41;;;;;;;5.00;4.70;;;;;;;18.14;82.97;101613.37;4412590;32;20095;-67
2021/06/04 02:45:29;;;;;;;4.95;4.65;;;;;;;17.97;82.73;101600.44;4396520;32;20646;-67
2021/06/04 02:47:56;;;;;;;4.90;4.70;;;;;;;18.03;83.78;101611.47;4414296;32;20064;-67
2021/06/04 02:50:40;;;;;;;5.03;4.82;;;;;;;18.04;84.18;101610.53;4396019;32;20486;-67
2021/06/04 02:53:27;;;;;;;4.97;4.78;;;;;;;18.06;83.26;101611.28;4410328;32;20065;-67
2021/06/04 02:56:16;;;;;;;4.70;4.50;;;;;;;18.09;83.83;101607.53;4419158;32;20687;-67
2021/06/04 02:58:44;;;;;;;5.72;5.43;;;;;;;18.10;84.03;101610.09;4410442;32;20084;-67
2021/06/04 03:01:10;;;;;;;5.00;4.80;;;;;;;18.02;84.58;101608.91;4392646;32;20069;-67
2021/06/04 03:03:36;;;;;;;5.00;4.80;;;;;;;18.01;84.03;101620.50;4396924;32;20758;-67
2021/06/04 03:06:01;;;;;;;5.00;4.80;;;;;;;18.04;84.60;101623.81;4386905;32;20175;-67
2021/06/04 03:08:27;;;;;;;4.82;4.62;;;;;;;18.09;84.55;101623.47;4397999;32;20084;-67
2021/06/04 03:10:53;;;;;;;5.03;4.82;;;;;;;18.09;84.17;101626.13;4394814;32;20163;-67
2021/06/04 03:13:23;;;;;;;5.20;5.00;;;;;;;18.16;83.20;101637.19;4398353;32;20153;-67
2021/06/04 03:15:50;;;;;;;5.20;4.90;;;;;;;18.19;83.58;101639.63;4396736;32;20689;-67
2021/06/04 03:18:19;;;;;;;5.15;4.95;;;;;;;18.22;83.28;101642.94;4396461;32;20183;-67
2021/06/04 03:20:45;;;;;;;4.95;4.75;;;;;;;18.22;83.74;101645.59;4403397;32;20077;-66
2021/06/04 03:23:13;;;;;;;4.90;4.70;;;;;;;18.21;83.32;101651.84;4379580;32;20076;-66
2021/06/04 03:25:41;;;;;;;5.00;4.80;;;;;;;18.18;84.19;101641.44;4383992;32;20591;-67
2021/06/04 03:28:07;;;;;;;4.95;4.75;;;;;;;18.20;84.28;101639.53;4395885;32;20100;-66
2021/06/04 03:30:34;;;;;;;5.25;5.00;;;;;;;18.13;83.95;101643.56;4391136;32;20079;-66
2021/06/04 03:32:59;;;;;;;4.82;4.62;;;;;;;18.10;85.03;101649.06;4406686;32;20142;-66
2021/06/04 03:35:24;;;;;;;4.90;4.70;;;;;;;18.09;84.26;101650.03;4392941;32;20087;-66
2021/06/04 03:37:50;;;;;;;5.40;5.10;;;;;;;18.05;85.22;101649.41;4399197;32;20326;-66
2021/06/04 03:40:17;;;;;;;5.50;5.20;;;;;;;18.01;84.23;101644.41;4408535;32;20406;-66
2021/06/04 03:42:42;;;;;;;5.05;4.85;;;;;;;18.10;85.17;101649.06;4399175;32;20053;-66
2021/06/04 03:45:10;;;;;;;5.60;5.30;;;;;;;18.12;84.45;101648.03;4397197;32;20057;-67
2021/06/04 03:47:36;;;;;;;5.15;4.95;;;;;;;18.13;85.27;101655.03;4383004;32;20159;-66
2021/06/04 03:50:01;;;;;;;5.32;5.03;;;;;;;18.09;84.10;101652.69;4382626;32;20547;-66
2021/06/04 03:52:27;;;;;;;4.82;4.62;;;;;;;18.02;85.22;101648.75;4406988;32;20057;-66
2021/06/04 03:54:54;;;;;;;5.05;4.85;;;;;;;18.00;84.81;101650.66;4401959;32;20075;-66
2021/06/04 03:57:24;;;;;;;6.25;5.82;;;;;;;17.99;84.89;101641.00;4386742;32;20070;-66
2021/06/04 03:59:49;;;;;;;4.97;4.70;;;;;;;18.00;85.75;101646.22;4385912;32;20081;-67
2021/06/04 04:02:16;;;;;;;5.05;4.85;;;;;;;18.04;84.60;101646.84;4391500;32;20073;-66
2021/06/04 04:04:42;;;;;;;5.37;5.12;;;;;;;18.06;84.50;101644.94;4382201;32;20061;-66
2021/06/04 04:07:07;;;;;;;5.00;4.80;;;;;;;18.05;84.94;101643.25;4395494;32;20079;-66
2021/06/04 04:09:33;;;;;;;4.75;4.55;;;;;;;17.99;84.76;101641.00;4395127;32;20237;-66
2021/06/04 04:11:58;;;;;;;5.03;4.72;;;;;;;17.95;85.55;101645.69;4396838;32;20065;-66
2021/06/04 04:14:23;;;;;;;4.97;4.68;;;;;;;18.00;85.76;101648.88;4409705;32;20595;-66
2021/06/04 04:16:49;;;;;;;5.10;4.90;;;;;;;18.08;85.48;101650.97;4402761;32;20150;-66
2021/06/04 04:19:14;;;;;;;4.95;4.75;;;;;;;18.13;85.97;101640.91;4398210;32;20091;-66
2021/06/04 04:21:40;;;;;;;5.18;4.93;;;;;;;17.95;85.07;101589.91;4402351;32;20681;-66
2021/06/04 04:24:10;;;;;;;5.00;4.80;;;;;;;18.24;85.17;101638.38;4397679;32;20175;-66
2021/06/04 04:26:36;;;;;;;4.62;4.43;;;;;;;18.29;84.99;101638.88;4399929;32;20064;-66
2021/06/04 04:29:01;;;;;;;5.37;5.12;;;;;;;18.31;84.64;101636.97;4399421;32;20088;-66
2021/06/04 04:31:29;;;;;;;5.28;5.07;;;;;;;18.39;84.13;101643.56;4405858;32;20360;-66
2021/06/04 04:33:55;;;;;;;5.12;4.93;;;;;;;18.47;84.65;101647.37;4394147;32;20061;-66
2021/06/04 04:36:22;;;;;;;5.62;5.32;;;;;;;18.60;84.08;101654.47;4398082;32;20188;-66
2021/06/04 04:38:48;;;;;;;4.80;4.60;;;;;;;18.71;83.37;101655.41;4398544;32;20088;-67
2021/06/04 04:41:13;;;;;;;5.30;4.95;;;;;;;18.96;82.52;101650.16;4399155;32;20102;-65
2021/06/04 04:43:40;;;;;;;5.05;4.85;;;;;;;19.26;82.23;101650.59;4398504;32;20092;-66
2021/06/04 04:46:07;;;;;;;5.05;4.85;;;;;;;19.58;81.01;101650.00;4402204;32;20126;-66
2021/06/04 04:48:32;;;;;;;5.10;4.90;;;;;;;19.73;80.55;101608.09;4395899;32;20081;-66
2021/06/04 04:50:57;;;;;;;5.20;5.00;;;;;;;20.37;78.74;101657.37;4400131;32;20064;-66
2021/06/04 04:53:23;;;;;;;5.20;5.00;;;;;;;20.74;77.40;101670.47;4396089;32;20968;-66
2021/06/04 04:55:48;;;;;;;5.20;4.90;;;;;;;21.00;75.84;101669.22;4403540;32;20057;-66
2021/06/04 04:58:14;;;;;;;6.35;6.05;;;;;;;21.20;74.51;101672.94;4397594;32;20450;-66
2021/06/04 05:00:41;;;;;;;5.82;5.53;;;;;;;21.15;73.44;101666.28;4395317;32;20072;-66
2021/06/04 05:03:07;;;;;;;5.07;4.87;;;;;;;21.09;73.63;101668.50;4412997;32;20114;-66
2021/06/04 05:05:33;;;;;;;5.60;5.22;;;;;;;20.83;74.02;101675.09;4406689;32;20702;-66
2021/06/04 05:07:58;;;;;;;5.60;5.30;;;;;;;20.07;76.71;101672.94;4396900;32;20355;-66
2021/06/04 05:10:23;;;;;;;5.12;4.93;;;;;;;19.89;77.90;101672.53;4411018;32;20217;-66
2021/06/04 05:12:49;;;;;;;5.97;5.68;;;;;;;19.66;78.86;101673.41;4414662;32;20060;-66
2021/06/04 05:15:17;;;;;;;5.37;5.07;;;;;;;19.84;78.98;101676.50;4417854;32;20394;-66
2021/06/04 05:17:43;;;;;;;5.07;4.87;;;;;;;19.88;78.48;101680.63;4412533;32;20080;-66
2021/06/04 05:20:09;;;;;;;5.50;5.22;;;;;;;20.08;77.47;101673.78;4410671;32;20086;-66
2021/06/04 05:22:34;;;;;;;5.30;5.00;;;;;;;20.29;77.14;101663.28;4396872;32;20150;-66
2021/06/04 05:25:00;;;;;;;5.62;5.32;;;;;;;20.39;76.52;101668.75;4397738;32;20060;-66
2021/06/04 05:27:25;;;;;;;5.60;5.30;;;;;;;20.63;76.12;101672.19;4397337;32;20408;-66
2021/06/04 05:29:51;;;;;;;5.35;5.05;;;;;;;21.12;75.11;101672.72;4394202;32;20162;-67
2021/06/04 05:32:17;;;;;;;6.28;5.87;;;;;;;21.60;73.35;101671.50;4399838;32;20114;-66
2021/06/04 05:34:42;;;;;;;7.05;6.47;;;;;;;21.95;71.14;101675.69;4392335;32;20149;-67
2021/06/04 05:37:08;;;;;;;6.80;6.22;;;;;;;21.79;70.92;101674.34;4391308;32;20674;-66
2021/06/04 05:39:33;;;;;;;5.80;5.40;;;;;;;21.68;71.19;101677.06;4411796;32;20083;-66
2021/06/04 05:42:01;;;;;;;6.60;6.05;;;;;;;21.48;71.62;101676.03;4395418;32;20102;-66
2021/06/04 05:44:27;;;;;;;6.07;5.78;;;;;;;21.71;71.36;101674.13;4399799;32;20702;-67
2021/06/04 05:46:54;;;;;;;5.57;5.35;;;;;;;22.03;70.89;101673.19;4395433;32;20061;-66
2021/06/04 05:49:19;;;;;;;6.20;5.90;;;;;;;22.24;69.70;101658.03;4410491;32;20083;-67
2021/06/04 05:51:45;;;;;;;5.75;5.45;;;;;;;22.50;68.47;101673.66;4397747;32;20130;-67
2021/06/04 05:54:10;;;;;;;5.70;5.40;;;;;;;22.62;67.68;101672.56;4412013;32;20104;-66
2021/06/04 05:56:36;;;;;;;5.65;5.35;;;;;;;22.84;67.50;101676.03;4397644;32;20100;-67
2021/06/04 05:59:01;;;;;;;5.82;5.43;;;;;;;22.83;67.11;101679.66;4411503;32;20101;-66
2021/06/04 06:01:29;;;;;;;5.47;5.20;;;;;;;22.82;67.14;101683.34;4398139;32;20274;-66
2021/06/04 06:03:55;;;;;;;6.30;5.97;;;;;;;23.33;64.69;101687.69;4397501;32;20083;-67
2021/06/04 06:06:20;;;;;;;5.60;5.30;;;;;;;23.94;64.41;101681.25;4392897;32;20647;-67
2021/06/04 06:08:46;;;;;;;6.72;6.20;;;;;;;24.29;62.45;101685.97;4418174;32;20068;-67
2021/06/04 06:11:13;;;;;;;6.28;5.87;;;;;;;24.23;62.13;101683.00;4395770;32;22204;-66
2021/06/04 06:13:38;;;;;;;6.37;5.97;;;;;;;24.99;61.81;101680.16;4411633;32;20101;-67
2021/06/04 06:16:04;;;;;;;6.72;6.12;;;;;;;24.83;60.69;101683.50;4410327;32;20068;-67
2021/06/04 06:18:29;;;;;;;6.37;5.97;;;;;;;24.94;60.43;101674.41;4405366;32;20078;-67
2021/06/04 06:20:55;;;;;;;6.45;6.07;;;;;;;25.27;58.35;101677.47;4413352;32;20117;-66
2021/06/04 06:23:25;;;;;;;6.15;5.85;;;;;;;25.55;58.54;101688.16;4407940;32;20069;-67
2021/06/04 06:25:54;;;;;;;5.90;5.60;;;;;;;25.42;58.31;101678.63;4410678;32;20085;-67
2021/06/04 06:28:20;;;;;;;6.37;6.03;;;;;;;25.03;58.68;101684.22;4395658;32;20111;-67
2021/06/04 06:30:46;;;;;;;6.30;5.90;;;;;;;24.80;59.99;101686.50;4385357;32;20072;-67
2021/06/04 06:33:12;;;;;;;6.43;6.03;;;;;;;24.20;61.82;101676.09;4401975;32;20579;-69
2021/06/04 06:35:40;;;;;;;6.53;6.18;;;;;;;23.61;63.69;101671.78;4389249;32;20143;-69
2021/06/04 06:38:05;;;;;;;6.75;6.32;;;;;;;23.19;65.18;101685.44;4417811;32;20072;-68
2021/06/04 06:40:31;;;;;;;6.90;6.40;;;;;;;23.16;65.74;101691.91;4405191;32;20087;-68
2021/06/04 06:42:56;;;;;;;6.62;6.20;;;;;;;22.90;67.37;101720.97;4395572;32;20097;-68
2021/06/04 06:45:24;;;;;;;6.55;6.18;;;;;;;23.23;66.20;101700.22;4392694;32;20145;-66
2021/06/04 06:47:50;;;;;;;6.28;5.85;;;;;;;23.11;67.13;101704.84;4412298;32;20143;-67
2021/06/04 06:50:15;;;;;;;6.28;5.90;;;;;;;23.38;65.47;101709.56;4406502;32;20076;-67
2021/06/04 06:52:40;;;;;;;5.68;5.37;;;;;;;23.42;65.50;101708.31;4414215;32;20181;-68
2021/06/04 06:55:07;;;;;;;6.20;5.80;;;;;;;23.07;66.38;101712.34;4398180;32;20176;-67
2021/06/04 06:57:32;;;;;;;6.45;6.07;;;;;;;23.03;66.93;101681.47;4392519;32;20069;-67
2021/06/04 06:59:58;;;;;;;6.85;6.45;;;;;;;22.67;66.06;101582.03;4404315;32;20645;-66
2021/06/04 07:02:24;;;;;;;6.37;5.97;;;;;;;23.89;65.39;101704.94;4391904;32;20084;-66
2021/06/04 07:04:49;;;;;;;6.40;6.00;;;;;;;23.53;65.38;101714.50;4388294;32;20519;-67
2021/06/04 07:07:17;;;;;;;6.78;6.28;;;;;;;23.64;64.17;101704.50;4385137;32;20061;-68
2021/06/04 07:09:44;;;;;;;6.45;6.05;;;;;;;23.75;65.08;101718.75;4387328;32;20092;-68
2021/06/04 07:12:09;;;;;;;9.73;6.75;;;;;;;23.69;65.63;101714.78;4384194;32;20520;-69
2021/06/04 07:14:35;;;;;;;6.47;6.07;;;;;;;23.28;66.43;101709.56;4387300;32;20069;-69
2021/06/04 07:17:01;;;;;;;6.85;6.32;;;;;;;23.52;65.85;101712.84;4396525;32;21051;-67
2021/06/04 07:19:27;;;;;;;6.78;6.22;;;;;;;23.58;65.13;101712.28;4386200;32;20662;-67
2021/06/04 07:21:53;;;;;;;7.30;6.45;;;;;;;23.78;64.84;101714.00;4382444;32;20643;-67
2021/06/04 07:24:21;;;;;;;6.57;5.97;;;;;;;23.74;65.38;101720.59;4394017;32;20346;-67
2021/06/04 07:26:48;;;;;;;6.22;5.90;;;;;;;24.05;64.08;101720.44;4398126;32;20077;-68
2021/06/04 07:29:14;;;;;;;6.57;6.18;;;;;;;23.99;64.44;101721.03;4398870;32;20483;-68
2021/06/04 07:31:39;;;;;;;6.43;6.03;;;;;;;24.23;63.20;101702.62;4397548;32;20674;-67
2021/06/04 07:34:05;;;;;;;7.60;6.90;;;;;;;24.11;63.98;101719.03;4378149;32;20085;-66
2021/06/04 07:36:34;;;;;;;6.90;6.25;;;;;;;23.82;63.85;101706.53;4400950;32;20081;-68
2021/06/04 07:38:59;;;;;;;6.40;6.00;;;;;;;23.77;63.77;101723.00;4394886;32;20065;-68
2021/06/04 07:41:24;;;;;;;7.12;6.62;;;;;;;24.00;63.59;101714.69;4393307;32;20157;-68
2021/06/04 07:43:50;;;;;;;6.40;6.00;;;;;;;24.10;62.96;101715.50;4394361;32;21650;-67
2021/06/04 07:46:16;;;;;;;6.60;6.20;;;;;;;24.19;63.51;101717.31;4399800;32;20402;-68
2021/06/04 07:48:42;;;;;;;7.22;6.72;;;;;;;23.94;63.95;101717.94;4395974;32;20809;-67
2021/06/04 07:51:12;;;;;;;7.75;7.25;;;;;;;23.94;63.14;101717.94;4412228;32;20123;-66
2021/06/04 07:53:39;;;;;;;6.62;6.22;;;;;;;24.33;62.41;101717.84;4386546;32;20855;-69
2021/06/04 07:56:05;;;;;;;6.60;6.10;;;;;;;24.44;62.16;101688.19;4422888;32;20122;-66
2021/06/04 07:58:30;;;;;;;6.90;6.40;;;;;;;24.54;60.88;101713.16;4393951;32;20681;-66
2021/06/04 08:00:55;;;;;;;6.85;6.35;;;;;;;24.73;59.48;101711.41;4396266;32;20096;-66
2021/06/04 08:03:23;;;;;;;7.07;6.55;;;;;;;24.80;61.66;101712.50;4408196;32;20613;-67
2021/06/04 08:05:48;;;;;;;6.80;6.32;;;;;;;25.41;59.01;101714.56;4395470;32;20088;-69
2021/06/04 08:08:14;;;;;;;7.35;6.78;;;;;;;25.58;57.53;101714.69;4399857;32;20692;-69
2021/06/04 08:10:40;;;;;;;6.90;6.45;;;;;;;25.73;57.37;101715.84;4398958;32;20095;-70
2021/06/04 08:13:06;;;;;;;7.68;7.18;;;;;;;25.92;56.31;101711.31;4396871;32;20076;-70
2021/06/04 08:15:37;;;;;;;7.35;6.85;;;;;;;26.19;55.39;101704.97;4394813;32;20096;-67
2021/06/04 08:18:03;;;;;;;6.72;6.30;;;;;;;26.29;54.80;101712.94;4401698;32;20604;-70
2021/06/04 08:20:29;;;;;;;7.37;6.95;;;;;;;26.01;53.81;101705.03;4407169;32;20080;-68
2021/06/04 08:23:00;;;;;;;6.25;5.85;;;;;;;26.45;54.51;101704.97;4408366;32;20083;-67
2021/06/04 08:25:28;;;;;;;6.50;6.10;;;;;;;26.71;51.86;101709.50;4399555;32;20095;-70
2021/06/04 08:27:53;;;;;;;6.62;6.22;;;;;;;26.80;53.21;101705.81;4395157;32;20953;-70
2021/06/04 08:30:19;;;;;;;7.95;7.25;;;;;;;26.31;52.96;101705.56;4401293;32;20064;-67
2021/06/04 08:32:44;;;;;;;8.10;7.50;;;;;;;26.78;52.35;101703.31;4396201;32;20117;-68
2021/06/04 08:35:10;;;;;;;6.65;6.25;;;;;;;27.03;51.34;101719.56;4401997;32;20080;-68
2021/06/04 08:37:36;;;;;;;6.80;6.30;;;;;;;27.41;49.36;101698.47;4421383;32;20095;-68
2021/06/04 08:40:03;;;;;;;7.28;6.78;;;;;;;26.96;49.94;101687.06;4412579;32;20076;-69
2021/06/04 08:42:54;;;;;;;8.35;7.05;;;;;;;26.79;50.01;101693.38;4425689;32;20083;-69
2021/06/04 08:45:40;;;;;;;7.07;6.53;;;;;;;27.01;50.27;101700.84;4449953;32;20329;-69
2021/06/04 08:48:18;;;;;;;7.18;6.65;;;;;;;26.92;50.34;101664.16;4419215;32;20068;-69
2021/06/04 08:51:10;;;;;;;7.60;6.97;;;;;;;26.05;49.97;101547.69;4414706;32;20073;-69
2021/06/04 08:53:54;;;;;;;7.97;7.37;;;;;;;26.35;49.84;101688.94;4428868;32;20234;-69
2021/06/04 08:56:23;;;;;;;9.80;7.80;;;;;;;26.78;46.87;101691.69;4402389;32;20198;-69
2021/06/04 08:58:58;;;;;;;7.20;6.60;;;;;;;26.76;48.54;101699.06;4398198;32;20759;-68
2021/06/04 09:01:24;;;;;;;8.57;7.82;;;;;;;26.71;48.71;101691.50;4399591;32;20089;-68
2021/06/04 09:03:55;;;;;;;8.20;6.90;;;;;;;27.12;47.99;101688.09;4405624;32;20135;-68
2021/06/04 09:06:49;;;;;;;7.43;6.90;;;;;;;27.04;47.02;101688.91;4374388;32;20436;-68
2021/06/04 09:09:36;;;;;;;7.50;6.90;;;;;;;26.77;48.93;101696.22;4404582;32;20154;-68
2021/06/04 09:12:35;;;;;;;8.35;7.72;;;;;;;27.11;48.11;101686.41;4406437;32;20138;-68
2021/06/04 09:15:01;;;;;;;8.20;7.47;;;;;;;27.10;48.12;101690.09;4414821;32;20717;-68
2021/06/04 09:17:41;;;;;;;9.20;8.15;;;;;;;27.01;49.38;101679.31;4410083;32;20335;-69
2021/06/04 09:20:15;;;;;;;7.45;6.78;;;;;;;26.75;48.06;101681.25;4412574;32;20088;-68
2021/06/04 09:22:46;;;;;;;8.30;7.40;;;;;;;26.90;48.59;101674.22;4407555;32;20080;-68
2021/06/04 09:25:15;;;;;;;8.18;7.43;;;;;;;26.78;49.11;101681.78;4399995;32;20161;-69
2021/06/04 09:27:43;;;;;;;7.85;7.15;;;;;;;27.15;48.24;101682.38;4409833;32;20100;-68
2021/06/04 09:30:34;;;;;;;7.78;7.18;;;;;;;27.42;47.81;101683.94;4423701;32;20128;-68
2021/06/04 09:33:21;;;;;;;8.13;7.40;;;;;;;27.40;47.77;101675.19;4419338;32;20088;-68
2021/06/04 09:35:55;;;;;;;7.57;6.97;;;;;;;27.36;48.15;101681.94;4395945;32;20634;-69
2021/06/04 09:38:29;;;;;;;7.20;6.68;;;;;;;26.84;48.12;101565.31;4404743;32;20097;-68
2021/06/04 09:40:55;;;;;;;7.75;7.15;;;;;;;27.24;47.13;101667.91;4425672;32;20175;-69
2021/06/04 09:43:31;;;;;;;8.05;7.37;;;;;;;27.52;47.62;101668.44;4395325;32;20066;-69
2021/06/04 09:46:05;;;;;;;7.87;7.18;;;;;;;27.77;46.05;101679.25;4412017;32;20128;-69
2021/06/04 09:48:42;;;;;;;7.62;7.12;;;;;;;27.73;45.25;101672.53;4403339;32;20153;-69
2021/06/04 09:51:18;;;;;;;8.65;7.85;;;;;;;28.20;46.31;101667.22;4399541;32;20080;-68
2021/06/04 09:53:43;;;;;;;7.60;7.07;;;;;;;28.09;44.52;101655.97;4403566;32;20216;-69
2021/06/04 09:56:18;;;;;;;7.75;7.15;;;;;;;28.17;44.15;101650.56;4415943;32;20088;-68
2021/06/04 09:59:00;;;;;;;11.12;7.87;;;;;;;27.80;45.06;101657.31;4422709;32;20080;-69
2021/06/04 10:01:28;;;;;;;7.55;6.85;;;;;;;28.49;44.01;101655.00;4423944;32;20601;-69
2021/06/04 10:04:03;;;;;;;8.50;7.80;;;;;;;28.33;43.85;101641.56;4395276;32;20222;-69
2021/06/04 10:06:34;;;;;;;8.57;7.97;;;;;;;27.92;45.30;101649.75;4399507;32;20079;-69
2021/06/04 10:09:02;;;;;;;7.50;6.93;;;;;;;28.00;44.90;101641.66;4397179;32;20817;-69
2021/06/04 10:11:30;;;;;;;7.28;6.75;;;;;;;28.34;43.40;101652.16;4398484;32;20089;-69
2021/06/04 10:14:22;;;;;;;7.90;7.25;;;;;;;27.95;45.04;101658.34;4395909;32;20637;-68
2021/06/04 10:19:19;;;;;;;7.27;6.73;;;;;;;29.16;43.36;101646.41;4419844;32;20237;-69
2021/06/04 10:21:44;;;;;;;8.10;7.60;;;;;;;29.35;42.12;101641.56;4419506;32;20073;-69
2021/06/04 10:24:30;;;;;;;9.35;8.57;;;;;;;29.28;41.98;101649.53;4393473;32;20064;-69
2021/06/04 10:27:01;;;;;;;9.00;8.02;;;;;;;30.04;40.65;101644.16;4397629;32;20933;-69
2021/06/04 10:29:27;;;;;;;7.70;7.03;;;;;;;30.08;41.66;101642.75;4408513;32;20724;-69
2021/06/04 10:32:02;;;;;;;7.55;6.85;;;;;;;29.83;41.22;101637.59;4399053;32;20246;-69
2021/06/04 10:34:53;;;;;;;8.40;7.80;;;;;;;29.65;40.63;101647.91;4409097;32;20549;-69
2021/06/04 10:37:45;;;;;;;8.07;7.47;;;;;;;28.90;43.48;101641.31;4411359;32;20681;-69
2021/06/04 10:40:25;;;;;;;7.85;7.25;;;;;;;28.33;44.66;101638.88;4398184;32;20120;-69
2021/06/04 10:43:39;;;;;;;7.85;7.15;;;;;;;28.01;46.05;101638.78;4433928;32;20081;-69
2021/06/04 10:46:19;;;;;;;8.35;7.55;;;;;;;27.95;45.91;101633.25;4402177;32;20092;-69
2021/06/04 10:49:02;;;;;;;7.85;7.35;;;;;;;28.20;44.63;101639.41;4425023;32;20667;-69
2021/06/04 10:51:32;;;;;;;7.72;7.07;;;;;;;28.19;44.61;101635.03;4409555;32;20263;-68
2021/06/04 10:54:03;;;;;;;8.15;7.45;;;;;;;28.30;44.87;101634.63;4405888;32;20073;-69
2021/06/04 10:56:34;;;;;;;9.00;8.15;;;;;;;29.08;42.30;101632.09;4428906;32;20129;-69
2021/06/04 10:59:09;;;;;;;8.13;7.62;;;;;;;29.83;40.38;101623.25;4398209;32;20531;-68
2021/06/04 11:02:06;;;;;;;8.20;7.60;;;;;;;29.57;41.51;101634.44;4420373;32;20094;-68
2021/06/04 11:04:39;;;;;;;8.27;7.68;;;;;;;29.78;40.80;101585.91;4409067;32;20080;-69
2021/06/04 11:07:22;;;;;;;7.82;7.22;;;;;;;29.56;41.20;101627.34;4398066;32;20077;-70
2021/06/04 11:09:49;;;;;;;8.45;7.70;;;;;;;28.90;41.37;101630.50;4422905;32;20514;-70
2021/06/04 11:12:37;;;;;;;9.45;7.75;;;;;;;29.10;40.70;101611.12;4407910;32;20758;-70
2021/06/04 11:15:21;;;;;;;7.82;7.10;;;;;;;29.26;40.47;101611.03;4408206;32;20171;-69
2021/06/04 11:17:58;;;;;;;8.18;7.57;;;;;;;29.43;40.03;101609.03;4419807;32;20589;-69
2021/06/04 11:20:43;;;;;;;8.50;7.75;;;;;;;29.19;39.46;101607.38;4396408;32;20206;-70
2021/06/04 11:23:12;;;;;;;9.23;8.30;;;;;;;29.38;40.10;101595.22;4412165;32;20083;-69
2021/06/04 11:25:54;;;;;;;8.98;8.18;;;;;;;29.64;41.84;101590.22;4405350;32;20077;-70
2021/06/04 11:28:51;;;;;;;7.07;6.57;;;;;;;29.46;40.06;101581.63;4406063;32;20099;-70
2021/06/04 11:31:30;;;;;;;8.40;7.80;;;;;;;29.02;41.31;101576.88;4397066;32;20108;-70
2021/06/04 11:33:57;;;;;;;8.43;7.72;;;;;;;28.99;41.71;101575.41;4411066;32;20656;-68
2021/06/04 11:36:34;;;;;;;8.13;7.53;;;;;;;28.47;41.50;101580.59;4395673;32;20251;-68
2021/06/04 11:39:09;;;;;;;8.77;7.95;;;;;;;28.70;41.98;101575.25;4399873;32;20068;-68
2021/06/04 11:41:40;;;;;;;8.50;7.80;;;;;;;29.38;41.50;101563.59;4409174;32;20068;-68